sensor_id;sensor_type;location;lat;lon;timestamp;temperature;humidity
14585;DHT22;7379;51.506;11.876;2022-08-01T00:01:45;22.70;62.20
14585;DHT22;7379;51.506;11.876;2022-08-01T00:04:12;22.70;62.30
14585;DHT22;7379;51.506;11.876;2022-08-01T00:06:39;22.70;62.30
14585;DHT22;7379;51.506;11.876;2022-08-01T00:09:06;22.60;62.20
14585;DHT22;7379;51.506;11.876;2022-08-01T00:11:33;22.60;62.30
14585;DHT22;7379;51.506;11.876;2022-08-01T00:13:59;22.60;62.20
14585;DHT22;7379;51.506;11.876;2022-08-01T00:16:26;22.60;62.30
14585;DHT22;7379;51.506;11.876;2022-08-01T00:18:54;22.60;62.30
14585;DHT22;7379;51.506;11.876;2022-08-01T00:21:21;22.60;62.30
14585;DHT22;7379;51.506;11.876;2022-08-01T00:23:48;22.60;62.50
14585;DHT22;7379;51.506;11.876;2022-08-01T00:26:15;22.60;62.50
14585;DHT22;7379;51.506;11.876;2022-08-01T00:28:42;22.60;62.60
14585;DHT22;7379;51.506;11.876;2022-08-01T00:31:09;22.50;62.50
14585;DHT22;7379;51.506;11.876;2022-08-01T00:33:35;22.50;62.40
14585;DHT22;7379;51.506;11.876;2022-08-01T00:36:04;22.50;62.40
14585;DHT22;7379;51.506;11.876;2022-08-01T00:38:30;22.50;62.40
14585;DHT22;7379;51.506;11.876;2022-08-01T00:40:57;22.50;62.40
14585;DHT22;7379;51.506;11.876;2022-08-01T00:43:24;22.50;62.40
14585;DHT22;7379;51.506;11.876;2022-08-01T00:45:51;22.50;62.40
14585;DHT22;7379;51.506;11.876;2022-08-01T00:48:17;22.50;62.40
14585;DHT22;7379;51.506;11.876;2022-08-01T00:50:44;22.50;62.50
14585;DHT22;7379;51.506;11.876;2022-08-01T00:53:13;22.50;62.50
14585;DHT22;7379;51.506;11.876;2022-08-01T00:55:40;22.50;62.50
14585;DHT22;7379;51.506;11.876;2022-08-01T00:58:07;22.40;62.50
14585;DHT22;7379;51.506;11.876;2022-08-01T01:00:35;22.40;62.60
14585;DHT22;7379;51.506;11.876;2022-08-01T01:03:02;22.40;62.60
14585;DHT22;7379;51.506;11.876;2022-08-01T01:05:33;22.40;62.80
14585;DHT22;7379;51.506;11.876;2022-08-01T01:08:04;22.40;62.70
14585;DHT22;7379;51.506;11.876;2022-08-01T01:10:42;22.40;62.80
14585;DHT22;7379;51.506;11.876;2022-08-01T01:13:13;22.40;62.70
14585;DHT22;7379;51.506;11.876;2022-08-01T01:15:45;22.30;62.60
14585;DHT22;7379;51.506;11.876;2022-08-01T01:18:16;22.30;62.50
14585;DHT22;7379;51.506;11.876;2022-08-01T01:20:45;22.30;62.50
14585;DHT22;7379;51.506;11.876;2022-08-01T01:23:34;22.30;62.60
14585;DHT22;7379;51.506;11.876;2022-08-01T01:26:26;22.30;62.60
14585;DHT22;7379;51.506;11.876;2022-08-01T01:29:02;22.30;62.50
14585;DHT22;7379;51.506;11.876;2022-08-01T01:31:35;22.30;62.60
14585;DHT22;7379;51.506;11.876;2022-08-01T01:34:04;22.30;62.70
14585;DHT22;7379;51.506;11.876;2022-08-01T01:36:32;22.30;62.70
14585;DHT22;7379;51.506;11.876;2022-08-01T01:39:00;22.30;62.70
14585;DHT22;7379;51.506;11.876;2022-08-01T01:41:28;22.20;62.60
14585;DHT22;7379;51.506;11.876;2022-08-01T01:43:58;22.20;62.50
14585;DHT22;7379;51.506;11.876;2022-08-01T01:46:28;22.20;62.60
14585;DHT22;7379;51.506;11.876;2022-08-01T01:48:56;22.20;62.60
14585;DHT22;7379;51.506;11.876;2022-08-01T01:51:25;22.20;62.60
14585;DHT22;7379;51.506;11.876;2022-08-01T01:53:55;22.20;62.60
14585;DHT22;7379;51.506;11.876;2022-08-01T01:56:23;22.20;62.60
14585;DHT22;7379;51.506;11.876;2022-08-01T01:58:52;22.20;62.70
14585;DHT22;7379;51.506;11.876;2022-08-01T02:01:22;22.20;62.70
14585;DHT22;7379;51.506;11.876;2022-08-01T02:03:51;22.10;62.60
14585;DHT22;7379;51.506;11.876;2022-08-01T02:06:20;22.10;62.80
14585;DHT22;7379;51.506;11.876;2022-08-01T02:08:48;22.10;62.80
14585;DHT22;7379;51.506;11.876;2022-08-01T02:11:15;22.10;62.80
14585;DHT22;7379;51.506;11.876;2022-08-01T02:13:48;22.10;62.80
14585;DHT22;7379;51.506;11.876;2022-08-01T02:16:16;22.10;62.90
14585;DHT22;7379;51.506;11.876;2022-08-01T02:18:45;22.10;62.90
14585;DHT22;7379;51.506;11.876;2022-08-01T02:21:16;22.10;62.90
14585;DHT22;7379;51.506;11.876;2022-08-01T02:23:47;22.10;62.90
14585;DHT22;7379;51.506;11.876;2022-08-01T02:26:15;22.10;63.00
14585;DHT22;7379;51.506;11.876;2022-08-01T02:28:47;22.10;63.00
14585;DHT22;7379;51.506;11.876;2022-08-01T02:31:20;22.00;63.00
14585;DHT22;7379;51.506;11.876;2022-08-01T02:33:54;22.00;63.00
14585;DHT22;7379;51.506;11.876;2022-08-01T02:36:21;22.00;63.00
14585;DHT22;7379;51.506;11.876;2022-08-01T02:38:50;22.00;63.00
14585;DHT22;7379;51.506;11.876;2022-08-01T02:41:20;22.00;63.10
14585;DHT22;7379;51.506;11.876;2022-08-01T02:43:50;22.00;63.10
14585;DHT22;7379;51.506;11.876;2022-08-01T02:46:21;22.00;63.30
14585;DHT22;7379;51.506;11.876;2022-08-01T02:48:52;22.00;63.30
14585;DHT22;7379;51.506;11.876;2022-08-01T02:51:21;22.00;63.30
14585;DHT22;7379;51.506;11.876;2022-08-01T02:53:50;22.00;63.30
14585;DHT22;7379;51.506;11.876;2022-08-01T02:56:19;22.00;63.40
14585;DHT22;7379;51.506;11.876;2022-08-01T02:58:47;22.00;63.40
14585;DHT22;7379;51.506;11.876;2022-08-01T03:01:16;21.90;63.40
14585;DHT22;7379;51.506;11.876;2022-08-01T03:03:44;21.90;63.40
14585;DHT22;7379;51.506;11.876;2022-08-01T03:06:12;21.90;63.40
14585;DHT22;7379;51.506;11.876;2022-08-01T03:08:39;21.90;63.40
14585;DHT22;7379;51.506;11.876;2022-08-01T03:11:08;21.90;63.40
14585;DHT22;7379;51.506;11.876;2022-08-01T03:13:35;21.90;63.50
14585;DHT22;7379;51.506;11.876;2022-08-01T03:16:04;21.90;63.60
14585;DHT22;7379;51.506;11.876;2022-08-01T03:18:32;21.90;63.50
14585;DHT22;7379;51.506;11.876;2022-08-01T03:21:00;21.90;63.60
14585;DHT22;7379;51.506;11.876;2022-08-01T03:23:30;21.90;63.60
14585;DHT22;7379;51.506;11.876;2022-08-01T03:26:00;21.90;63.80
14585;DHT22;7379;51.506;11.876;2022-08-01T03:28:29;21.90;63.80
14585;DHT22;7379;51.506;11.876;2022-08-01T03:30:58;21.80;63.80
14585;DHT22;7379;51.506;11.876;2022-08-01T03:33:25;21.80;63.90
14585;DHT22;7379;51.506;11.876;2022-08-01T03:35:54;21.80;63.90
14585;DHT22;7379;51.506;11.876;2022-08-01T03:38:23;21.80;63.90
14585;DHT22;7379;51.506;11.876;2022-08-01T03:40:55;21.80;64.00
14585;DHT22;7379;51.506;11.876;2022-08-01T03:43:28;21.80;64.00
14585;DHT22;7379;51.506;11.876;2022-08-01T03:46:03;21.80;64.10
14585;DHT22;7379;51.506;11.876;2022-08-01T03:48:37;21.80;64.20
14585;DHT22;7379;51.506;11.876;2022-08-01T03:51:07;21.80;64.30
14585;DHT22;7379;51.506;11.876;2022-08-01T03:53:36;21.80;64.30
14585;DHT22;7379;51.506;11.876;2022-08-01T03:56:07;21.70;64.20
14585;DHT22;7379;51.506;11.876;2022-08-01T03:58:36;21.70;64.20
14585;DHT22;7379;51.506;11.876;2022-08-01T04:01:05;21.70;64.30
14585;DHT22;7379;51.506;11.876;2022-08-01T04:03:32;21.70;64.40
14585;DHT22;7379;51.506;11.876;2022-08-01T04:06:00;21.80;64.50
14585;DHT22;7379;51.506;11.876;2022-08-01T04:08:34;21.70;64.50
14585;DHT22;7379;51.506;11.876;2022-08-01T04:11:01;21.70;64.50
14585;DHT22;7379;51.506;11.876;2022-08-01T04:13:30;21.70;64.60
14585;DHT22;7379;51.506;11.876;2022-08-01T04:15:56;21.70;64.70
14585;DHT22;7379;51.506;11.876;2022-08-01T04:18:23;21.70;64.70
14585;DHT22;7379;51.506;11.876;2022-08-01T04:20:50;21.70;64.70
14585;DHT22;7379;51.506;11.876;2022-08-01T04:23:17;21.70;64.70
14585;DHT22;7379;51.506;11.876;2022-08-01T04:25:46;21.70;64.90
14585;DHT22;7379;51.506;11.876;2022-08-01T04:28:15;21.70;64.80
14585;DHT22;7379;51.506;11.876;2022-08-01T04:30:48;21.70;64.90
14585;DHT22;7379;51.506;11.876;2022-08-01T04:33:17;21.60;64.80
14585;DHT22;7379;51.506;11.876;2022-08-01T04:35:45;21.60;64.80
14585;DHT22;7379;51.506;11.876;2022-08-01T04:38:15;21.60;64.90
14585;DHT22;7379;51.506;11.876;2022-08-01T04:40:45;21.60;65.00
14585;DHT22;7379;51.506;11.876;2022-08-01T04:43:12;21.60;65.10
14585;DHT22;7379;51.506;11.876;2022-08-01T04:45:39;21.60;65.10
14585;DHT22;7379;51.506;11.876;2022-08-01T04:48:10;21.60;65.20
14585;DHT22;7379;51.506;11.876;2022-08-01T04:50:37;21.60;65.30
14585;DHT22;7379;51.506;11.876;2022-08-01T04:53:05;21.60;65.30
14585;DHT22;7379;51.506;11.876;2022-08-01T04:55:35;21.60;65.40
14585;DHT22;7379;51.506;11.876;2022-08-01T04:58:02;21.60;65.40
14585;DHT22;7379;51.506;11.876;2022-08-01T05:00:29;21.60;65.50
14585;DHT22;7379;51.506;11.876;2022-08-01T05:02:56;21.60;65.60
14585;DHT22;7379;51.506;11.876;2022-08-01T05:05:24;21.60;65.70
14585;DHT22;7379;51.506;11.876;2022-08-01T05:07:51;21.60;65.80
14585;DHT22;7379;51.506;11.876;2022-08-01T05:10:18;21.60;65.80
14585;DHT22;7379;51.506;11.876;2022-08-01T05:12:45;21.60;65.90
14585;DHT22;7379;51.506;11.876;2022-08-01T05:15:12;21.60;65.90
14585;DHT22;7379;51.506;11.876;2022-08-01T05:17:39;21.60;66.60
14585;DHT22;7379;51.506;11.876;2022-08-01T05:20:08;21.60;66.70
14585;DHT22;7379;51.506;11.876;2022-08-01T05:22:36;21.60;66.10
14585;DHT22;7379;51.506;11.876;2022-08-01T05:25:04;21.60;66.10
14585;DHT22;7379;51.506;11.876;2022-08-01T05:27:31;21.50;66.00
14585;DHT22;7379;51.506;11.876;2022-08-01T05:30:03;21.50;66.00
14585;DHT22;7379;51.506;11.876;2022-08-01T05:32:30;21.60;66.30
14585;DHT22;7379;51.506;11.876;2022-08-01T05:34:57;21.60;66.30
14585;DHT22;7379;51.506;11.876;2022-08-01T05:37:24;21.60;66.40
14585;DHT22;7379;51.506;11.876;2022-08-01T05:39:52;21.60;67.10
14585;DHT22;7379;51.506;11.876;2022-08-01T05:42:19;21.60;66.40
14585;DHT22;7379;51.506;11.876;2022-08-01T05:44:46;21.60;66.40
14585;DHT22;7379;51.506;11.876;2022-08-01T05:47:15;21.50;66.30
14585;DHT22;7379;51.506;11.876;2022-08-01T05:49:41;21.50;66.30
14585;DHT22;7379;51.506;11.876;2022-08-01T05:52:09;21.60;66.40
14585;DHT22;7379;51.506;11.876;2022-08-01T05:54:36;21.50;66.30
14585;DHT22;7379;51.506;11.876;2022-08-01T05:57:04;21.60;66.50
14585;DHT22;7379;51.506;11.876;2022-08-01T05:59:31;21.60;66.60
14585;DHT22;7379;51.506;11.876;2022-08-01T06:01:58;21.60;66.70
14585;DHT22;7379;51.506;11.876;2022-08-01T06:04:25;21.50;66.70
14585;DHT22;7379;51.506;11.876;2022-08-01T06:06:52;21.50;66.70
14585;DHT22;7379;51.506;11.876;2022-08-01T06:09:19;21.50;66.70
14585;DHT22;7379;51.506;11.876;2022-08-01T06:11:45;21.50;67.40
14585;DHT22;7379;51.506;11.876;2022-08-01T06:14:13;21.50;66.60
14585;DHT22;7379;51.506;11.876;2022-08-01T06:16:40;21.50;66.60
14585;DHT22;7379;51.506;11.876;2022-08-01T06:19:07;21.50;66.60
14585;DHT22;7379;51.506;11.876;2022-08-01T06:21:34;21.50;66.80
14585;DHT22;7379;51.506;11.876;2022-08-01T06:24:00;21.50;66.90
14585;DHT22;7379;51.506;11.876;2022-08-01T06:26:27;21.50;67.00
14585;DHT22;7379;51.506;11.876;2022-08-01T06:28:54;21.60;67.10
14585;DHT22;7379;51.506;11.876;2022-08-01T06:31:22;21.50;67.20
14585;DHT22;7379;51.506;11.876;2022-08-01T06:33:49;21.60;67.30
14585;DHT22;7379;51.506;11.876;2022-08-01T06:36:16;21.50;67.30
14585;DHT22;7379;51.506;11.876;2022-08-01T06:38:42;21.50;68.10
14585;DHT22;7379;51.506;11.876;2022-08-01T06:41:09;21.50;67.20
14585;DHT22;7379;51.506;11.876;2022-08-01T06:43:36;21.50;67.30
14585;DHT22;7379;51.506;11.876;2022-08-01T06:46:03;21.50;67.40
14585;DHT22;7379;51.506;11.876;2022-08-01T06:48:31;21.50;67.40
14585;DHT22;7379;51.506;11.876;2022-08-01T06:50:58;21.50;67.50
14585;DHT22;7379;51.506;11.876;2022-08-01T06:53:34;21.50;67.60
14585;DHT22;7379;51.506;11.876;2022-08-01T06:56:02;21.50;67.60
14585;DHT22;7379;51.506;11.876;2022-08-01T06:58:29;21.50;67.70
14585;DHT22;7379;51.506;11.876;2022-08-01T07:00:55;21.50;67.90
14585;DHT22;7379;51.506;11.876;2022-08-01T07:03:22;21.50;67.90
14585;DHT22;7379;51.506;11.876;2022-08-01T07:05:50;21.50;68.20
14585;DHT22;7379;51.506;11.876;2022-08-01T07:08:17;21.50;68.10
14585;DHT22;7379;51.506;11.876;2022-08-01T07:10:44;21.50;68.20
14585;DHT22;7379;51.506;11.876;2022-08-01T07:13:11;21.50;68.20
14585;DHT22;7379;51.506;11.876;2022-08-01T07:15:40;21.50;68.30
14585;DHT22;7379;51.506;11.876;2022-08-01T07:18:07;21.50;68.30
14585;DHT22;7379;51.506;11.876;2022-08-01T07:20:33;21.50;68.40
14585;DHT22;7379;51.506;11.876;2022-08-01T07:23:01;21.50;68.50
14585;DHT22;7379;51.506;11.876;2022-08-01T07:25:28;21.50;68.60
14585;DHT22;7379;51.506;11.876;2022-08-01T07:27:55;21.50;69.20
14585;DHT22;7379;51.506;11.876;2022-08-01T07:30:22;21.50;69.40
14585;DHT22;7379;51.506;11.876;2022-08-01T07:32:49;21.60;69.50
14585;DHT22;7379;51.506;11.876;2022-08-01T07:35:15;21.60;70.00
14585;DHT22;7379;51.506;11.876;2022-08-01T07:37:42;21.60;69.60
14585;DHT22;7379;51.506;11.876;2022-08-01T07:40:11;21.50;69.70
14585;DHT22;7379;51.506;11.876;2022-08-01T07:42:38;21.50;70.10
14585;DHT22;7379;51.506;11.876;2022-08-01T07:45:09;21.60;69.40
14585;DHT22;7379;51.506;11.876;2022-08-01T07:47:36;21.60;69.50
14585;DHT22;7379;51.506;11.876;2022-08-01T07:50:05;21.60;69.40
14585;DHT22;7379;51.506;11.876;2022-08-01T07:52:32;21.60;69.30
14585;DHT22;7379;51.506;11.876;2022-08-01T07:54:58;21.60;69.30
14585;DHT22;7379;51.506;11.876;2022-08-01T07:57:27;21.60;69.50
14585;DHT22;7379;51.506;11.876;2022-08-01T07:59:53;21.60;69.50
14585;DHT22;7379;51.506;11.876;2022-08-01T08:02:20;21.60;69.50
14585;DHT22;7379;51.506;11.876;2022-08-01T08:04:47;21.60;69.60
14585;DHT22;7379;51.506;11.876;2022-08-01T08:07:14;21.60;69.70
14585;DHT22;7379;51.506;11.876;2022-08-01T08:09:40;21.60;69.90
14585;DHT22;7379;51.506;11.876;2022-08-01T08:12:07;21.60;70.00
14585;DHT22;7379;51.506;11.876;2022-08-01T08:14:36;21.60;69.80
14585;DHT22;7379;51.506;11.876;2022-08-01T08:17:03;21.60;69.40
14585;DHT22;7379;51.506;11.876;2022-08-01T08:19:31;21.60;69.60
14585;DHT22;7379;51.506;11.876;2022-08-01T08:21:59;21.60;69.80
14585;DHT22;7379;51.506;11.876;2022-08-01T08:24:26;21.60;69.70
14585;DHT22;7379;51.506;11.876;2022-08-01T08:26:57;21.60;69.50
14585;DHT22;7379;51.506;11.876;2022-08-01T08:29:25;21.60;69.70
14585;DHT22;7379;51.506;11.876;2022-08-01T08:31:54;21.60;69.90
14585;DHT22;7379;51.506;11.876;2022-08-01T08:34:21;21.60;69.80
14585;DHT22;7379;51.506;11.876;2022-08-01T08:36:48;21.60;69.80
14585;DHT22;7379;51.506;11.876;2022-08-01T08:39:15;21.60;69.60
14585;DHT22;7379;51.506;11.876;2022-08-01T08:41:42;21.60;69.80
14585;DHT22;7379;51.506;11.876;2022-08-01T08:44:10;21.60;69.80
14585;DHT22;7379;51.506;11.876;2022-08-01T08:46:41;21.60;70.00
14585;DHT22;7379;51.506;11.876;2022-08-01T08:49:11;21.60;70.00
14585;DHT22;7379;51.506;11.876;2022-08-01T08:51:39;21.70;70.30
14585;DHT22;7379;51.506;11.876;2022-08-01T08:54:11;21.70;70.40
14585;DHT22;7379;51.506;11.876;2022-08-01T08:56:38;21.70;70.30
14585;DHT22;7379;51.506;11.876;2022-08-01T08:59:05;21.80;70.30
14585;DHT22;7379;51.506;11.876;2022-08-01T09:01:32;21.80;70.20
14585;DHT22;7379;51.506;11.876;2022-08-01T09:04:00;21.80;70.10
14585;DHT22;7379;51.506;11.876;2022-08-01T09:06:29;21.90;70.00
14585;DHT22;7379;51.506;11.876;2022-08-01T09:08:56;21.90;70.00
14585;DHT22;7379;51.506;11.876;2022-08-01T09:11:23;21.90;70.70
14585;DHT22;7379;51.506;11.876;2022-08-01T09:14:04;21.90;69.80
14585;DHT22;7379;51.506;11.876;2022-08-01T09:16:32;21.90;69.70
14585;DHT22;7379;51.506;11.876;2022-08-01T09:19:13;21.90;69.40
14585;DHT22;7379;51.506;11.876;2022-08-01T09:21:56;21.90;69.30
14585;DHT22;7379;51.506;11.876;2022-08-01T09:24:25;21.90;68.80
14585;DHT22;7379;51.506;11.876;2022-08-01T09:26:53;21.90;68.60
14585;DHT22;7379;51.506;11.876;2022-08-01T09:29:21;21.90;68.40
14585;DHT22;7379;51.506;11.876;2022-08-01T09:31:48;21.90;68.30
14585;DHT22;7379;51.506;11.876;2022-08-01T09:34:15;21.90;68.40
14585;DHT22;7379;51.506;11.876;2022-08-01T09:36:52;22.00;68.40
14585;DHT22;7379;51.506;11.876;2022-08-01T09:39:22;22.00;68.00
14585;DHT22;7379;51.506;11.876;2022-08-01T09:41:49;22.00;67.90
14585;DHT22;7379;51.506;11.876;2022-08-01T09:44:17;22.00;67.30
14585;DHT22;7379;51.506;11.876;2022-08-01T09:46:50;22.10;67.50
14585;DHT22;7379;51.506;11.876;2022-08-01T09:49:27;22.10;67.10
14585;DHT22;7379;51.506;11.876;2022-08-01T09:51:57;22.10;67.20
14585;DHT22;7379;51.506;11.876;2022-08-01T09:54:29;22.10;67.00
14585;DHT22;7379;51.506;11.876;2022-08-01T09:57:07;22.20;67.10
14585;DHT22;7379;51.506;11.876;2022-08-01T09:59:35;22.20;66.90
14585;DHT22;7379;51.506;11.876;2022-08-01T10:02:03;22.20;66.90
14585;DHT22;7379;51.506;11.876;2022-08-01T10:04:30;22.20;66.80
14585;DHT22;7379;51.506;11.876;2022-08-01T10:07:04;22.20;66.70
14585;DHT22;7379;51.506;11.876;2022-08-01T10:09:35;22.20;66.70
14585;DHT22;7379;51.506;11.876;2022-08-01T10:12:03;22.20;66.80
14585;DHT22;7379;51.506;11.876;2022-08-01T10:14:30;22.20;66.70
14585;DHT22;7379;51.506;11.876;2022-08-01T10:16:59;22.30;66.60
14585;DHT22;7379;51.506;11.876;2022-08-01T10:19:27;22.30;66.60
14585;DHT22;7379;51.506;11.876;2022-08-01T10:21:55;22.30;66.50
14585;DHT22;7379;51.506;11.876;2022-08-01T10:24:25;22.30;66.30
14585;DHT22;7379;51.506;11.876;2022-08-01T10:26:57;22.40;66.30
14585;DHT22;7379;51.506;11.876;2022-08-01T10:29:27;22.40;66.20
14585;DHT22;7379;51.506;11.876;2022-08-01T10:31:58;22.40;65.90
14585;DHT22;7379;51.506;11.876;2022-08-01T10:34:25;22.50;65.40
14585;DHT22;7379;51.506;11.876;2022-08-01T10:36:52;22.50;65.20
14585;DHT22;7379;51.506;11.876;2022-08-01T10:39:19;22.60;65.40
14585;DHT22;7379;51.506;11.876;2022-08-01T10:41:48;22.60;65.40
14585;DHT22;7379;51.506;11.876;2022-08-01T10:44:16;22.70;65.30
14585;DHT22;7379;51.506;11.876;2022-08-01T10:46:48;22.70;65.10
14585;DHT22;7379;51.506;11.876;2022-08-01T10:49:17;22.80;64.80
14585;DHT22;7379;51.506;11.876;2022-08-01T10:51:46;22.80;64.50
14585;DHT22;7379;51.506;11.876;2022-08-01T10:54:13;22.80;63.80
14585;DHT22;7379;51.506;11.876;2022-08-01T10:56:43;22.80;63.90
14585;DHT22;7379;51.506;11.876;2022-08-01T10:59:14;22.80;63.80
14585;DHT22;7379;51.506;11.876;2022-08-01T11:01:41;22.80;63.90
14585;DHT22;7379;51.506;11.876;2022-08-01T11:04:11;22.70;64.20
14585;DHT22;7379;51.506;11.876;2022-08-01T11:06:48;22.70;64.50
14585;DHT22;7379;51.506;11.876;2022-08-01T11:09:24;22.70;64.80
14585;DHT22;7379;51.506;11.876;2022-08-01T11:12:00;22.70;65.00
14585;DHT22;7379;51.506;11.876;2022-08-01T11:14:31;22.70;65.30
14585;DHT22;7379;51.506;11.876;2022-08-01T11:17:31;22.60;65.10
14585;DHT22;7379;51.506;11.876;2022-08-01T11:20:04;22.70;65.50
14585;DHT22;7379;51.506;11.876;2022-08-01T11:22:31;22.70;65.60
14585;DHT22;7379;51.506;11.876;2022-08-01T11:24:58;22.70;65.60
14585;DHT22;7379;51.506;11.876;2022-08-01T11:27:27;22.80;65.10
14585;DHT22;7379;51.506;11.876;2022-08-01T11:30:23;22.90;64.90
14585;DHT22;7379;51.506;11.876;2022-08-01T11:32:52;22.90;64.80
14585;DHT22;7379;51.506;11.876;2022-08-01T11:35:19;22.90;64.80
14585;DHT22;7379;51.506;11.876;2022-08-01T11:37:49;22.90;64.70
14585;DHT22;7379;51.506;11.876;2022-08-01T11:40:21;22.90;64.80
14585;DHT22;7379;51.506;11.876;2022-08-01T11:42:49;22.90;64.80
14585;DHT22;7379;51.506;11.876;2022-08-01T11:45:16;23.00;64.80
14585;DHT22;7379;51.506;11.876;2022-08-01T11:47:45;22.90;64.80
14585;DHT22;7379;51.506;11.876;2022-08-01T11:50:32;23.00;64.90
14585;DHT22;7379;51.506;11.876;2022-08-01T11:52:59;23.00;64.90
14585;DHT22;7379;51.506;11.876;2022-08-01T11:55:27;23.00;64.80
14585;DHT22;7379;51.506;11.876;2022-08-01T11:57:59;23.00;64.90
14585;DHT22;7379;51.506;11.876;2022-08-01T12:00:26;23.00;64.90
14585;DHT22;7379;51.506;11.876;2022-08-01T12:02:59;23.10;64.70
14585;DHT22;7379;51.506;11.876;2022-08-01T12:05:27;23.10;64.70
14585;DHT22;7379;51.506;11.876;2022-08-01T12:07:56;23.10;64.40
14585;DHT22;7379;51.506;11.876;2022-08-01T12:10:25;23.30;64.90
14585;DHT22;7379;51.506;11.876;2022-08-01T12:12:54;23.30;64.70
14585;DHT22;7379;51.506;11.876;2022-08-01T12:15:23;23.30;64.60
14585;DHT22;7379;51.506;11.876;2022-08-01T12:17:51;23.40;64.20
14585;DHT22;7379;51.506;11.876;2022-08-01T12:20:23;23.40;64.20
14585;DHT22;7379;51.506;11.876;2022-08-01T12:22:53;23.30;63.40
14585;DHT22;7379;51.506;11.876;2022-08-01T12:25:20;23.30;62.90
14585;DHT22;7379;51.506;11.876;2022-08-01T12:27:48;23.40;62.90
14585;DHT22;7379;51.506;11.876;2022-08-01T12:30:17;23.40;63.00
14585;DHT22;7379;51.506;11.876;2022-08-01T12:32:46;23.40;63.00
14585;DHT22;7379;51.506;11.876;2022-08-01T12:35:15;23.40;62.80
14585;DHT22;7379;51.506;11.876;2022-08-01T12:37:44;23.50;62.80
14585;DHT22;7379;51.506;11.876;2022-08-01T12:40:13;23.50;62.80
14585;DHT22;7379;51.506;11.876;2022-08-01T12:42:42;23.50;62.50
14585;DHT22;7379;51.506;11.876;2022-08-01T12:45:12;23.50;62.80
14585;DHT22;7379;51.506;11.876;2022-08-01T12:47:40;23.40;62.90
14585;DHT22;7379;51.506;11.876;2022-08-01T12:50:10;23.40;63.00
14585;DHT22;7379;51.506;11.876;2022-08-01T12:52:38;23.40;63.10
14585;DHT22;7379;51.506;11.876;2022-08-01T12:55:12;23.30;63.10
14585;DHT22;7379;51.506;11.876;2022-08-01T12:57:41;23.30;63.20
14585;DHT22;7379;51.506;11.876;2022-08-01T13:00:15;23.30;62.80
14585;DHT22;7379;51.506;11.876;2022-08-01T13:02:46;23.30;62.80
14585;DHT22;7379;51.506;11.876;2022-08-01T13:05:14;23.30;62.40
14585;DHT22;7379;51.506;11.876;2022-08-01T13:07:45;23.30;62.50
14585;DHT22;7379;51.506;11.876;2022-08-01T13:10:15;23.30;62.60
14585;DHT22;7379;51.506;11.876;2022-08-01T13:12:51;23.30;62.90
14585;DHT22;7379;51.506;11.876;2022-08-01T13:15:22;23.20;63.00
14585;DHT22;7379;51.506;11.876;2022-08-01T13:17:49;23.20;63.00
14585;DHT22;7379;51.506;11.876;2022-08-01T13:20:28;23.20;63.20
14585;DHT22;7379;51.506;11.876;2022-08-01T13:22:55;23.20;63.10
14585;DHT22;7379;51.506;11.876;2022-08-01T13:25:49;23.20;63.20
14585;DHT22;7379;51.506;11.876;2022-08-01T13:28:18;23.10;63.10
14585;DHT22;7379;51.506;11.876;2022-08-01T13:30:56;23.10;63.10
14585;DHT22;7379;51.506;11.876;2022-08-01T13:33:24;23.10;63.00
14585;DHT22;7379;51.506;11.876;2022-08-01T13:35:52;23.20;63.00
14585;DHT22;7379;51.506;11.876;2022-08-01T13:38:19;23.20;63.00
14585;DHT22;7379;51.506;11.876;2022-08-01T13:41:08;23.10;63.60
14585;DHT22;7379;51.506;11.876;2022-08-01T13:43:34;23.20;62.80
14585;DHT22;7379;51.506;11.876;2022-08-01T13:46:01;23.10;62.90
14585;DHT22;7379;51.506;11.876;2022-08-01T13:48:30;23.20;62.90
14585;DHT22;7379;51.506;11.876;2022-08-01T13:50:56;23.20;62.70
14585;DHT22;7379;51.506;11.876;2022-08-01T13:53:23;23.30;62.40
14585;DHT22;7379;51.506;11.876;2022-08-01T13:55:50;23.40;62.30
14585;DHT22;7379;51.506;11.876;2022-08-01T13:58:18;23.40;62.10
14585;DHT22;7379;51.506;11.876;2022-08-01T14:00:45;23.70;61.10
14585;DHT22;7379;51.506;11.876;2022-08-01T14:03:12;23.90;60.80
14585;DHT22;7379;51.506;11.876;2022-08-01T14:05:39;24.10;60.00
14585;DHT22;7379;51.506;11.876;2022-08-01T14:08:06;24.30;59.60
14585;DHT22;7379;51.506;11.876;2022-08-01T14:10:34;24.60;58.90
14585;DHT22;7379;51.506;11.876;2022-08-01T14:13:01;24.70;58.40
14585;DHT22;7379;51.506;11.876;2022-08-01T14:15:30;25.00;57.90
14585;DHT22;7379;51.506;11.876;2022-08-01T14:17:58;25.10;57.10
14585;DHT22;7379;51.506;11.876;2022-08-01T14:20:25;25.10;57.20
14585;DHT22;7379;51.506;11.876;2022-08-01T14:22:51;25.20;56.60
14585;DHT22;7379;51.506;11.876;2022-08-01T14:25:18;25.10;56.90
14585;DHT22;7379;51.506;11.876;2022-08-01T14:27:45;25.20;56.40
14585;DHT22;7379;51.506;11.876;2022-08-01T14:30:13;25.10;56.90
14585;DHT22;7379;51.506;11.876;2022-08-01T14:32:41;25.00;57.00
14585;DHT22;7379;51.506;11.876;2022-08-01T14:35:08;25.00;56.60
14585;DHT22;7379;51.506;11.876;2022-08-01T14:37:35;25.00;56.60
14585;DHT22;7379;51.506;11.876;2022-08-01T14:40:04;24.90;57.90
14585;DHT22;7379;51.506;11.876;2022-08-01T14:42:34;24.80;57.50
14585;DHT22;7379;51.506;11.876;2022-08-01T14:45:02;24.90;57.10
14585;DHT22;7379;51.506;11.876;2022-08-01T14:47:29;24.90;57.10
14585;DHT22;7379;51.506;11.876;2022-08-01T14:49:57;25.00;56.70
14585;DHT22;7379;51.506;11.876;2022-08-01T14:52:24;25.00;56.80
14585;DHT22;7379;51.506;11.876;2022-08-01T14:54:51;25.00;56.80
14585;DHT22;7379;51.506;11.876;2022-08-01T14:57:18;25.10;56.60
14585;DHT22;7379;51.506;11.876;2022-08-01T14:59:44;25.20;56.40
14585;DHT22;7379;51.506;11.876;2022-08-01T15:02:11;25.30;56.20
14585;DHT22;7379;51.506;11.876;2022-08-01T15:04:42;25.40;56.00
14585;DHT22;7379;51.506;11.876;2022-08-01T15:07:11;25.50;55.60
14585;DHT22;7379;51.506;11.876;2022-08-01T15:09:38;25.40;55.80
14585;DHT22;7379;51.506;11.876;2022-08-01T15:12:05;25.50;55.20
14585;DHT22;7379;51.506;11.876;2022-08-01T15:14:32;25.80;54.30
14585;DHT22;7379;51.506;11.876;2022-08-01T15:17:15;25.90;54.40
14585;DHT22;7379;51.506;11.876;2022-08-01T15:19:41;25.80;54.60
14585;DHT22;7379;51.506;11.876;2022-08-01T15:22:10;26.00;54.10
14585;DHT22;7379;51.506;11.876;2022-08-01T15:24:37;25.90;54.50
14585;DHT22;7379;51.506;11.876;2022-08-01T15:27:04;25.80;55.30
14585;DHT22;7379;51.506;11.876;2022-08-01T15:29:31;25.80;54.70
14585;DHT22;7379;51.506;11.876;2022-08-01T15:31:58;25.90;54.60
14585;DHT22;7379;51.506;11.876;2022-08-01T15:34:25;25.80;54.50
14585;DHT22;7379;51.506;11.876;2022-08-01T15:36:52;25.80;54.40
14585;DHT22;7379;51.506;11.876;2022-08-01T15:39:20;25.70;53.60
14585;DHT22;7379;51.506;11.876;2022-08-01T15:41:47;25.60;53.20